Time;durP1;ratioP1;P1;durP2;ratioP2;P2;SDS_P1;SDS_P2;PMS_P1;PMS_P2;Temp;Humidity;BMP_temperature;BMP_pressure;BME280_temperature;BME280_humidity;BME280_pressure;Samples;Min_cycle;Max_cycle;Signal;HPM_P1;HPM_P2
2020/12/13 00:01:02;;;;;;;10.25;5.30;;;17.40;57.10;;;;;;5085615;28;20236;-77
2020/12/13 00:03:33;;;;;;;8.60;5.97;;;17.40;57.00;;;;;;5086164;28;20181;-77
2020/12/13 00:05:59;;;;;;;9.35;5.78;;;17.40;57.10;;;;;;5085874;28;20157;-78
2020/12/13 00:08:26;;;;;;;10.07;5.53;;;17.50;57.10;;;;;;5067948;28;20667;-77
2020/12/13 00:10:52;;;;;;;8.38;5.43;;;17.40;57.10;;;;;;5086204;28;20160;-77
2020/12/13 00:13:19;;;;;;;11.20;5.60;;;17.40;57.10;;;;;;5085573;28;20193;-77
2020/12/13 00:15:45;;;;;;;10.90;5.40;;;17.40;57.00;;;;;;5084812;28;20176;-77
2020/12/13 00:18:10;;;;;;;12.38;6.03;;;17.40;56.90;;;;;;5085118;28;20157;-77
2020/12/13 00:20:37;;;;;;;7.90;5.43;;;17.40;57.10;;;;;;5066704;28;20527;-78
2020/12/13 00:23:03;;;;;;;9.23;5.70;;;17.40;57.10;;;;;;5066665;28;20157;-77
2020/12/13 00:25:28;;;;;;;9.02;5.50;;;17.40;57.00;;;;;;5084230;28;20177;-78
2020/12/13 00:27:55;;;;;;;8.77;5.72;;;17.40;57.00;;;;;;5084172;28;20157;-77
2020/12/13 00:30:28;;;;;;;7.65;5.53;;;17.50;57.10;;;;;;5084473;28;20161;-77
2020/12/13 00:32:55;;;;;;;8.75;5.10;;;17.50;56.90;;;;;;5066820;28;20248;-77
2020/12/13 00:35:21;;;;;;;10.68;5.53;;;17.40;57.10;;;;;;5084307;28;20228;-77
2020/12/13 00:37:47;;;;;;;8.93;5.32;;;17.40;57.20;;;;;;5084539;28;20173;-77
2020/12/13 00:40:13;;;;;;;10.18;5.30;;;17.40;57.10;;;;;;5083921;28;20244;-77
2020/12/13 00:42:39;;;;;;;8.80;5.43;;;17.40;57.00;;;;;;5083283;28;20183;-78
2020/12/13 00:45:05;;;;;;;8.70;5.10;;;17.40;57.00;;;;;;5083221;28;20152;-77
2020/12/13 00:47:31;;;;;;;10.32;5.38;;;17.40;57.00;;;;;;5083641;28;20149;-77
2020/12/13 00:49:58;;;;;;;10.02;5.47;;;17.40;57.00;;;;;;5084645;28;20203;-79
2020/12/13 00:52:24;;;;;;;9.35;5.43;;;17.50;57.10;;;;;;5084201;28;20608;-77
2020/12/13 00:54:51;;;;;;;9.05;5.80;;;17.40;57.10;;;;;;5084291;28;20551;-77
2020/12/13 00:57:17;;;;;;;8.80;5.90;;;17.40;57.10;;;;;;5066339;28;20157;-78
2020/12/13 00:59:44;;;;;;;7.10;5.05;;;17.40;57.00;;;;;;5048925;28;20705;-78
2020/12/13 01:02:12;;;;;;;9.95;5.45;;;17.40;57.10;;;;;;5048842;28;20213;-77
2020/12/13 01:04:46;;;;;;;7.97;5.28;;;17.40;56.90;;;;;;5082949;28;20693;-77
2020/12/13 01:07:14;;;;;;;9.38;5.47;;;17.40;57.10;;;;;;5083423;28;20157;-77
2020/12/13 01:09:40;;;;;;;10.43;5.70;;;17.40;57.10;;;;;;5082170;28;20213;-78
2020/12/13 01:12:07;;;;;;;9.02;5.50;;;17.40;57.20;;;;;;5082492;28;20158;-77
2020/12/13 01:14:33;;;;;;;9.73;5.70;;;17.40;57.10;;;;;;5064600;28;20248;-78
2020/12/13 01:17:00;;;;;;;9.48;5.47;;;17.40;57.10;;;;;;5082941;28;20154;-78
2020/12/13 01:19:34;;;;;;;10.05;5.68;;;17.40;57.20;;;;;;5083797;28;20161;-78
2020/12/13 01:22:09;;;;;;;10.73;5.47;;;17.40;57.10;;;;;;5065003;28;20562;-77
2020/12/13 01:24:34;;;;;;;8.75;5.22;;;17.40;57.10;;;;;;5083331;28;20176;-78
2020/12/13 01:27:00;;;;;;;8.70;5.75;;;17.40;57.20;;;;;;5065298;28;20225;-77
2020/12/13 01:29:26;;;;;;;9.32;5.50;;;17.30;57.10;;;;;;5064912;28;20162;-78
2020/12/13 01:31:51;;;;;;;7.90;5.35;;;17.30;57.10;;;;;;5066254;28;20226;-77
2020/12/13 01:34:17;;;;;;;8.77;5.82;;;17.40;57.20;;;;;;5083471;28;20590;-77
2020/12/13 01:36:43;;;;;;;9.45;5.60;;;17.40;57.30;;;;;;5083557;28;20244;-76
2020/12/13 01:39:09;;;;;;;7.85;5.45;;;17.30;57.10;;;;;;5083351;28;20624;-77
2020/12/13 01:41:35;;;;;;;11.98;5.80;;;17.30;57.20;;;;;;5083572;28;20520;-77
2020/12/13 01:44:05;;;;;;;8.90;5.78;;;17.30;57.20;;;;;;5082567;28;20196;-78
2020/12/13 01:46:33;;;;;;;9.32;5.78;;;17.30;57.20;;;;;;5083726;28;20200;-77
2020/12/13 01:49:05;;;;;;;11.40;5.57;;;17.40;57.20;;;;;;5083526;28;20154;-77
2020/12/13 01:54:19;;;;;;;10.35;5.47;;;17.30;57.20;;;;;;5083014;28;20197;-77
2020/12/13 01:56:48;;;;;;;7.43;4.82;;;17.40;57.20;;;;;;5064480;28;20157;-77
2020/12/13 01:59:26;;;;;;;7.55;5.20;;;17.30;57.20;;;;;;5047660;28;20204;-77
2020/12/13 02:02:00;;;;;;;9.88;5.82;;;17.40;57.20;;;;;;5064563;28;20181;-77
2020/12/13 02:04:27;;;;;;;9.70;5.35;;;17.30;57.10;;;;;;5083076;28;20616;-77
2020/12/13 02:06:54;;;;;;;8.25;5.65;;;17.30;57.10;;;;;;5082360;28;20157;-77
2020/12/13 02:09:29;;;;;;;12.13;6.05;;;17.30;57.10;;;;;;5065059;28;20157;-77
2020/12/13 02:11:55;;;;;;;11.10;5.63;;;17.40;57.10;;;;;;5084356;28;20153;-78
2020/12/13 02:14:21;;;;;;;9.57;5.53;;;17.30;57.10;;;;;;5086819;28;20196;-77
2020/12/13 02:16:53;;;;;;;10.55;5.85;;;17.30;57.20;;;;;;5068968;28;20189;-77
2020/12/13 02:19:19;;;;;;;8.07;5.80;;;17.30;57.20;;;;;;5069722;28;20226;-78
2020/12/13 02:21:49;;;;;;;9.95;5.72;;;17.30;57.20;;;;;;5086330;28;20182;-77
2020/12/13 02:24:15;;;;;;;8.88;5.50;;;17.30;57.30;;;;;;5053177;28;20157;-78
2020/12/13 02:26:45;;;;;;;10.35;5.65;;;17.30;57.20;;;;;;5052211;28;20149;-77
2020/12/13 02:29:12;;;;;;;8.10;5.60;;;17.40;57.20;;;;;;5068751;28;20158;-77
2020/12/13 02:31:38;;;;;;;8.25;5.50;;;17.30;57.20;;;;;;5086175;28;20173;-77
2020/12/13 02:34:04;;;;;;;9.07;5.75;;;17.30;57.20;;;;;;5068689;28;20182;-77
2020/12/13 02:36:32;;;;;;;8.77;5.50;;;17.30;57.10;;;;;;5085194;28;20224;-77
2020/12/13 02:39:08;;;;;;;8.75;5.70;;;17.30;57.20;;;;;;5067529;28;20176;-77
2020/12/13 02:41:34;;;;;;;8.68;5.38;;;17.30;57.30;;;;;;5084725;28;20244;-76
2020/12/13 02:44:01;;;;;;;7.75;5.43;;;17.30;57.20;;;;;;5085007;28;20157;-77
2020/12/13 02:46:29;;;;;;;11.43;5.68;;;17.30;57.20;;;;;;5084731;28;20154;-76
2020/12/13 02:48:55;;;;;;;7.60;5.20;;;17.30;57.20;;;;;;5085149;28;20150;-76
2020/12/13 02:51:21;;;;;;;10.43;5.82;;;17.30;57.30;;;;;;5084693;28;20635;-77
2020/12/13 02:53:47;;;;;;;8.30;5.20;;;17.30;57.30;;;;;;5084137;28;20253;-76
2020/12/13 02:56:15;;;;;;;7.95;5.28;;;17.30;57.20;;;;;;5065371;28;20185;-77
2020/12/13 02:58:41;;;;;;;8.25;5.82;;;17.30;57.10;;;;;;5066191;28;20177;-78
2020/12/13 03:01:08;;;;;;;8.30;5.60;;;17.30;57.20;;;;;;5066341;28;20502;-76
2020/12/13 03:03:34;;;;;;;7.65;5.43;;;17.30;57.20;;;;;;5084676;28;20221;-77
2020/12/13 03:06:01;;;;;;;7.47;5.50;;;17.30;57.20;;;;;;5066550;28;20161;-76
2020/12/13 03:08:27;;;;;;;9.80;5.65;;;17.30;57.20;;;;;;5084679;28;20287;-77
2020/12/13 03:10:53;;;;;;;8.93;5.88;;;17.30;57.20;;;;;;5085035;28;20169;-76
2020/12/13 03:13:19;;;;;;;11.35;5.28;;;17.30;57.20;;;;;;5085412;28;20536;-76
2020/12/13 03:15:45;;;;;;;10.25;5.47;;;17.30;57.20;;;;;;5066519;28;20200;-78
2020/12/13 03:18:12;;;;;;;9.75;5.68;;;17.30;57.10;;;;;;5084004;28;20236;-78
2020/12/13 03:20:40;;;;;;;9.77;5.20;;;17.30;57.10;;;;;;5066935;28;20153;-77
2020/12/13 03:23:14;;;;;;;10.90;5.80;;;17.30;57.10;;;;;;5066034;28;20248;-77
2020/12/13 03:25:40;;;;;;;8.77;5.70;;;17.30;57.10;;;;;;5065672;28;20251;-77
2020/12/13 03:28:06;;;;;;;9.20;5.88;;;17.30;57.30;;;;;;5084419;28;20240;-76
2020/12/13 03:30:32;;;;;;;9.98;5.85;;;17.30;57.20;;;;;;5083856;28;20193;-76
2020/12/13 03:32:59;;;;;;;11.68;5.90;;;17.30;57.10;;;;;;5084455;28;20211;-77
2020/12/13 03:35:25;;;;;;;8.63;5.60;;;17.30;57.20;;;;;;5038435;28;726449;-77
2020/12/13 03:37:53;;;;;;;8.85;5.63;;;17.30;57.10;;;;;;5065531;28;20194;-77
2020/12/13 03:40:18;;;;;;;8.73;5.40;;;17.30;57.20;;;;;;5064496;28;20151;-76
2020/12/13 03:42:52;;;;;;;11.77;5.65;;;17.30;57.20;;;;;;5065448;28;20664;-79
2020/12/13 03:45:20;;;;;;;8.00;5.85;;;17.30;57.20;;;;;;5065260;28;20185;-77
2020/12/13 03:47:47;;;;;;;8.55;5.35;;;17.30;57.20;;;;;;5065415;28;20158;-77
2020/12/13 03:50:14;;;;;;;8.02;5.45;;;17.30;57.10;;;;;;5064602;28;20165;-76
2020/12/13 03:52:39;;;;;;;10.23;5.50;;;17.30;57.20;;;;;;5064791;28;20197;-78
2020/12/13 03:55:05;;;;;;;8.38;5.57;;;17.30;57.20;;;;;;5065648;28;20161;-77
2020/12/13 03:57:32;;;;;;;8.27;5.90;;;17.30;57.30;;;;;;5064117;28;20162;-77
2020/12/13 03:59:57;;;;;;;9.25;6.20;;;17.30;57.30;;;;;;5063501;28;20591;-76
2020/12/13 04:02:25;;;;;;;11.77;5.88;;;17.30;57.20;;;;;;5063846;28;20648;-78
2020/12/13 04:04:51;;;;;;;11.18;5.65;;;17.30;57.20;;;;;;5063364;28;20177;-77
2020/12/13 04:07:17;;;;;;;10.02;6.28;;;17.30;57.30;;;;;;5063456;28;20180;-77
2020/12/13 04:09:45;;;;;;;8.65;5.43;;;17.30;57.20;;;;;;5064782;28;20245;-76
2020/12/13 04:12:12;;;;;;;9.88;5.45;;;17.30;57.10;;;;;;5065083;28;20613;-78
2020/12/13 04:14:39;;;;;;;7.88;5.60;;;17.30;57.10;;;;;;5064774;28;20290;-76
2020/12/13 04:17:05;;;;;;;11.35;5.88;;;17.30;57.10;;;;;;5063686;28;20158;-77
2020/12/13 04:19:31;;;;;;;9.52;5.82;;;17.30;57.10;;;;;;5062776;28;20165;-76
2020/12/13 04:21:58;;;;;;;8.68;5.07;;;17.30;57.00;;;;;;5063006;28;20154;-77
2020/12/13 04:24:23;;;;;;;7.75;5.60;;;17.30;57.00;;;;;;5064557;28;20192;-77
2020/12/13 04:26:49;;;;;;;8.90;5.80;;;17.30;57.00;;;;;;5063116;28;20159;-76
2020/12/13 04:29:16;;;;;;;8.07;5.40;;;17.30;57.10;;;;;;5062995;28;20165;-77
2020/12/13 04:31:41;;;;;;;9.40;5.65;;;17.30;57.10;;;;;;5062809;28;20146;-77
2020/12/13 04:34:09;;;;;;;8.55;5.95;;;17.30;57.20;;;;;;5062862;28;20676;-77
2020/12/13 04:36:35;;;;;;;8.85;5.65;;;17.30;57.10;;;;;;5079104;28;20224;-78
2020/12/13 04:39:00;;;;;;;8.00;6.05;;;17.30;57.00;;;;;;5083772;28;20640;-76
2020/12/13 04:41:27;;;;;;;9.43;5.90;;;17.30;57.10;;;;;;5083939;28;20229;-77
2020/12/13 04:43:52;;;;;;;9.93;5.88;;;17.30;57.00;;;;;;5083480;28;20183;-76
2020/12/13 04:46:21;;;;;;;11.30;5.28;;;17.30;57.10;;;;;;5084283;28;20189;-76
2020/12/13 04:48:47;;;;;;;8.55;5.57;;;17.30;57.10;;;;;;5065997;28;20522;-76
2020/12/13 04:51:24;;;;;;;9.15;5.45;;;17.30;57.10;;;;;;5084291;28;20153;-77
2020/12/13 04:53:50;;;;;;;8.50;5.38;;;17.20;57.10;;;;;;5084402;28;20225;-77
2020/12/13 04:56:17;;;;;;;8.82;6.07;;;17.30;57.10;;;;;;5065813;28;20237;-77
2020/12/13 04:58:49;;;;;;;9.13;5.68;;;17.20;57.10;;;;;;5049497;28;20170;-77
2020/12/13 05:01:19;;;;;;;9.10;5.95;;;17.20;57.20;;;;;;5048329;28;20158;-76
2020/12/13 05:03:47;;;;;;;9.60;6.03;;;17.30;57.00;;;;;;5082956;28;20165;-77
2020/12/13 05:06:13;;;;;;;8.05;5.57;;;17.30;57.10;;;;;;5083304;28;20157;-78
2020/12/13 05:08:40;;;;;;;8.52;5.93;;;17.30;57.10;;;;;;5049292;28;20512;-76
2020/12/13 05:11:06;;;;;;;8.50;5.70;;;17.30;57.10;;;;;;5083239;28;20164;-77
2020/12/13 05:13:32;;;;;;;8.95;5.72;;;17.30;56.90;;;;;;5048434;28;20574;-77
2020/12/13 05:15:58;;;;;;;8.63;5.65;;;17.30;57.00;;;;;;5083483;28;20628;-76
2020/12/13 05:18:26;;;;;;;8.63;5.45;;;17.30;56.90;;;;;;5065185;28;20642;-78
2020/12/13 05:20:53;;;;;;;8.52;5.80;;;17.30;57.10;;;;;;5064913;28;20165;-77
2020/12/13 05:23:18;;;;;;;8.88;5.95;;;17.30;57.10;;;;;;5083684;28;20581;-77
2020/12/13 05:25:44;;;;;;;8.73;5.70;;;17.30;57.10;;;;;;5083524;28;20673;-76
2020/12/13 05:28:11;;;;;;;7.75;5.60;;;17.30;56.90;;;;;;5083166;28;20153;-76
2020/12/13 05:30:44;;;;;;;9.93;6.20;;;17.30;56.90;;;;;;5048353;28;20173;-77
2020/12/13 05:35:47;;;;;;;8.43;5.78;;;17.30;56.90;;;;;;5082601;28;20221;-77
2020/12/13 05:38:15;;;;;;;9.32;5.82;;;17.30;57.00;;;;;;5064462;28;20173;-76
2020/12/13 05:40:44;;;;;;;9.13;5.43;;;17.30;57.00;;;;;;5082434;28;20199;-78
2020/12/13 05:43:15;;;;;;;7.03;5.20;;;17.30;57.00;;;;;;5081935;28;20516;-77
2020/12/13 05:46:13;;;;;;;8.88;5.78;;;17.30;57.00;;;;;;5065452;28;20153;-78
2020/12/13 05:51:27;;;;;;;7.57;5.65;;;17.30;57.10;;;;;;5082896;28;20611;-76
2020/12/13 05:54:03;;;;;;;10.50;6.00;;;17.30;57.10;;;;;;5066611;28;20272;-77
2020/12/13 05:56:29;;;;;;;8.32;5.43;;;17.30;57.10;;;;;;5082292;28;20169;-78
2020/12/13 05:58:55;;;;;;;9.43;6.15;;;17.30;57.10;;;;;;5065255;28;20169;-76
2020/12/13 06:01:25;;;;;;;7.50;5.55;;;17.30;57.10;;;;;;5048518;28;20206;-76
2020/12/13 06:03:59;;;;;;;8.50;5.70;;;17.30;57.20;;;;;;5082561;28;20165;-77
2020/12/13 06:06:26;;;;;;;8.48;5.85;;;17.20;57.20;;;;;;5064041;28;20555;-78
2020/12/13 06:09:40;;;;;;;9.45;6.00;;;17.30;57.10;;;;;;5065226;28;20180;-77
2020/12/13 06:12:11;;;;;;;9.85;5.95;;;17.30;57.10;;;;;;4983988;28;20258;-77
2020/12/13 06:14:39;;;;;;;8.05;5.88;;;17.30;57.10;;;;;;5000316;28;20199;-78
2020/12/13 06:17:05;;;;;;;9.88;5.35;;;17.30;57.00;;;;;;4984650;28;20226;-77
2020/12/13 06:19:41;;;;;;;7.38;5.15;;;17.20;57.10;;;;;;4985177;28;20160;-76
2020/12/13 06:22:07;;;;;;;9.63;5.82;;;17.30;57.00;;;;;;5004789;28;20210;-77
2020/12/13 06:24:34;;;;;;;9.02;5.82;;;17.30;57.10;;;;;;4990495;28;20184;-77
2020/12/13 06:26:59;;;;;;;7.85;5.55;;;17.20;57.10;;;;;;4986287;28;20186;-77
2020/12/13 06:29:26;;;;;;;9.23;5.90;;;17.20;57.10;;;;;;5000654;28;20184;-78
2020/12/13 06:31:52;;;;;;;7.28;5.47;;;17.20;57.20;;;;;;5022807;28;20164;-76
2020/12/13 06:34:18;;;;;;;9.43;6.10;;;17.20;57.10;;;;;;5023567;28;20211;-77
2020/12/13 06:36:43;;;;;;;10.60;6.10;;;17.30;57.10;;;;;;5022204;28;20223;-77
2020/12/13 06:39:14;;;;;;;10.43;5.82;;;17.20;57.10;;;;;;5022307;28;20206;-79
2020/12/13 06:41:41;;;;;;;10.60;6.00;;;17.20;57.10;;;;;;5005475;28;20186;-77
2020/12/13 06:44:08;;;;;;;7.28;5.80;;;17.30;57.10;;;;;;5022774;28;20159;-77
2020/12/13 06:46:40;;;;;;;8.13;5.47;;;17.30;57.10;;;;;;5023419;28;20159;-77
2020/12/13 06:49:12;;;;;;;8.63;5.90;;;17.30;57.00;;;;;;5094554;28;20192;-77
2020/12/13 06:51:43;;;;;;;8.95;5.97;;;17.30;57.00;;;;;;5084914;28;20163;-77
2020/12/13 06:54:11;;;;;;;9.15;5.50;;;17.20;57.00;;;;;;5103082;28;20185;-77
2020/12/13 06:56:39;;;;;;;8.63;5.57;;;17.20;57.10;;;;;;5103691;28;20153;-77
2020/12/13 06:59:15;;;;;;;10.63;5.82;;;17.20;57.00;;;;;;5107285;28;20149;-77
2020/12/13 07:01:44;;;;;;;8.20;5.93;;;17.20;57.00;;;;;;5089573;28;20225;-77
2020/12/13 07:04:23;;;;;;;9.60;5.45;;;17.30;57.00;;;;;;5102086;28;20165;-77
2020/12/13 07:07:15;;;;;;;8.68;5.78;;;17.30;57.00;;;;;;5089160;28;20192;-76
2020/12/13 07:09:39;;;;;;;8.88;5.55;;;17.20;57.00;;;;;;5053334;28;20222;-76
2020/12/13 07:12:11;;;;;;;9.55;6.13;;;17.30;57.10;;;;;;5082913;28;20246;-77
2020/12/13 07:14:39;;;;;;;10.40;5.78;;;17.30;57.10;;;;;;5071915;28;20244;-77
2020/12/13 07:17:12;;;;;;;9.07;5.90;;;17.30;57.20;;;;;;5087508;28;20628;-76
2020/12/13 07:19:39;;;;;;;8.80;6.10;;;17.30;57.50;;;;;;5087830;28;20207;-77
2020/12/13 07:22:11;;;;;;;11.30;5.97;;;17.30;57.30;;;;;;5089505;28;20208;-76
2020/12/13 07:24:36;;;;;;;9.70;5.93;;;17.30;57.40;;;;;;5068629;28;20204;-77
2020/12/13 07:27:05;;;;;;;9.60;5.57;;;17.30;57.10;;;;;;5070189;28;20617;-77
2020/12/13 07:29:32;;;;;;;9.18;6.00;;;17.30;57.30;;;;;;5088321;28;20158;-77
2020/12/13 07:32:07;;;;;;;9.15;5.72;;;17.30;57.40;;;;;;5086454;28;20166;-78
2020/12/13 07:34:35;;;;;;;9.57;6.15;;;17.30;57.30;;;;;;5089115;28;20211;-77
2020/12/13 07:37:11;;;;;;;9.00;5.68;;;17.30;57.20;;;;;;5086865;28;20241;-77
2020/12/13 07:39:36;;;;;;;9.52;6.35;;;17.30;57.20;;;;;;5068230;28;20599;-76
2020/12/13 07:42:06;;;;;;;9.13;6.18;;;17.30;57.10;;;;;;5081802;28;20260;-80
2020/12/13 07:44:32;;;;;;;9.35;5.72;;;17.30;57.00;;;;;;5062336;28;20189;-77
2020/12/13 07:46:58;;;;;;;12.57;6.03;;;17.30;57.10;;;;;;5058972;28;20185;-77
2020/12/13 07:49:23;;;;;;;12.52;6.25;;;17.30;57.00;;;;;;5076911;28;20207;-79
2020/12/13 07:51:50;;;;;;;15.13;6.15;;;17.30;57.00;;;;;;5076102;28;20570;-78
2020/12/13 07:54:25;;;;;;;9.63;5.82;;;17.30;57.00;;;;;;5058681;28;20720;-79
2020/12/13 07:56:58;;;;;;;13.95;6.55;;;17.40;56.70;;;;;;5059046;28;20149;-80
2020/12/13 07:59:25;;;;;;;10.38;6.00;;;17.40;56.70;;;;;;5044327;28;20193;-78
2020/12/13 08:01:53;;;;;;;14.75;6.10;;;17.40;56.80;;;;;;5081150;28;20150;-80
2020/12/13 08:04:30;;;;;;;14.18;6.03;;;17.40;56.90;;;;;;5078774;28;20244;-79
2020/12/13 08:07:00;;;;;;;13.10;6.03;;;17.40;56.80;;;;;;5077214;28;20485;-79
2020/12/13 08:09:26;;;;;;;15.32;6.40;;;17.50;56.70;;;;;;5058980;28;20161;-78
2020/12/13 08:11:52;;;;;;;14.80;6.63;;;17.50;56.90;;;;;;5059081;28;20180;-78
2020/12/13 08:14:23;;;;;;;12.00;6.15;;;17.50;56.70;;;;;;5026417;28;20189;-79
2020/12/13 08:16:53;;;;;;;18.25;6.38;;;17.50;56.80;;;;;;5059928;28;20658;-79
2020/12/13 08:19:35;;;;;;;16.80;6.47;;;17.50;56.70;;;;;;5079543;28;20228;-79
2020/12/13 08:22:02;;;;;;;18.88;6.40;;;17.60;56.80;;;;;;5064576;28;20192;-76
2020/12/13 08:24:29;;;;;;;15.82;6.18;;;17.60;56.70;;;;;;5043817;28;20256;-78
2020/12/13 08:26:57;;;;;;;13.35;6.75;;;17.60;56.70;;;;;;5042803;28;20636;-79
2020/12/13 08:29:23;;;;;;;16.58;6.53;;;17.60;57.00;;;;;;5060087;28;20473;-76
2020/12/13 08:31:49;;;;;;;14.65;6.60;;;17.50;57.00;;;;;;5059080;28;20188;-78
2020/12/13 08:34:21;;;;;;;16.25;6.35;;;17.50;56.90;;;;;;5044042;28;20243;-76
2020/12/13 08:36:50;;;;;;;13.50;6.22;;;17.50;57.10;;;;;;5056685;28;20471;-80
2020/12/13 08:39:16;;;;;;;10.88;5.90;;;17.50;57.30;;;;;;5058559;28;20165;-79
2020/12/13 08:41:45;;;;;;;12.82;6.30;;;17.50;57.40;;;;;;5058416;28;20159;-79
2020/12/13 08:44:31;;;;;;;17.40;6.40;;;17.50;57.20;;;;;;5056848;28;20614;-79
2020/12/13 08:46:59;;;;;;;12.43;5.90;;;17.60;56.90;;;;;;5043500;28;20253;-78
2020/12/13 08:49:37;;;;;;;14.82;6.38;;;17.60;56.90;;;;;;5044811;28;20181;-79
2020/12/13 08:52:34;;;;;;;13.30;6.15;;;17.70;56.70;;;;;;5058464;28;20154;-80
2020/12/13 08:55:04;;;;;;;16.90;6.72;;;17.80;56.60;;;;;;5057271;28;20186;-80
2020/12/13 08:57:35;;;;;;;15.35;6.20;;;17.70;56.70;;;;;;5053644;28;20265;-81
2020/12/13 09:00:03;;;;;;;14.77;6.22;;;17.70;56.80;;;;;;5054935;28;20165;-78
2020/12/13 09:02:29;;;;;;;15.32;6.00;;;17.70;56.90;;;;;;5054502;28;20154;-79
2020/12/13 09:04:58;;;;;;;11.60;6.20;;;17.70;57.10;;;;;;5054033;28;20182;-80
2020/12/13 09:07:31;;;;;;;14.80;6.80;;;17.60;57.80;;;;;;5054078;28;20150;-79
2020/12/13 09:09:58;;;;;;;15.70;6.10;;;17.70;56.80;;;;;;5055152;28;20163;-78
2020/12/13 09:12:28;;;;;;;17.08;6.72;;;17.70;57.20;;;;;;5054410;28;20155;-81
2020/12/13 09:14:58;;;;;;;19.45;6.55;;;17.60;57.50;;;;;;5056120;28;20190;-78
2020/12/13 09:17:32;;;;;;;16.05;6.20;;;17.60;57.50;;;;;;5053383;28;20307;-80
2020/12/13 09:19:58;;;;;;;19.40;6.63;;;17.60;57.50;;;;;;5056896;28;20161;-78
2020/12/13 09:22:24;;;;;;;23.83;6.90;;;17.60;57.30;;;;;;5061647;28;20520;-80
2020/12/13 09:24:50;;;;;;;21.42;6.93;;;17.60;57.50;;;;;;5058535;28;20154;-78
2020/12/13 09:27:19;;;;;;;15.80;6.45;;;17.60;57.30;;;;;;5056099;28;20171;-77
2020/12/13 09:29:48;;;;;;;15.20;6.65;;;17.60;57.20;;;;;;5034991;28;20161;-79
2020/12/13 09:32:14;;;;;;;18.65;6.43;;;17.60;57.50;;;;;;5049506;28;20641;-78
2020/12/13 09:34:41;;;;;;;16.48;6.50;;;17.60;57.60;;;;;;5032389;28;20576;-78
2020/12/13 09:37:11;;;;;;;17.58;6.90;;;17.70;57.30;;;;;;5036156;28;20218;-76
2020/12/13 09:39:43;;;;;;;20.83;7.38;;;17.70;57.40;;;;;;5041187;28;20167;-76
2020/12/13 09:42:10;;;;;;;14.15;6.55;;;17.70;57.30;;;;;;5037294;28;20148;-80
2020/12/13 09:44:37;;;;;;;19.20;6.35;;;17.70;58.20;;;;;;5035098;28;20151;-78
2020/12/13 09:47:05;;;;;;;17.60;6.70;;;17.60;57.60;;;;;;5058859;28;20173;-78
2020/12/13 09:49:32;;;;;;;17.30;6.53;;;17.60;57.40;;;;;;5064173;28;20170;-78
2020/12/13 09:52:00;;;;;;;16.67;6.88;;;17.60;57.60;;;;;;5065674;28;20158;-79
2020/12/13 09:54:26;;;;;;;19.35;6.70;;;17.60;57.70;;;;;;5085078;28;20205;-79
2020/12/13 09:56:53;;;;;;;14.88;6.30;;;17.70;57.70;;;;;;5066922;28;20172;-79
2020/12/13 09:59:19;;;;;;;14.63;6.57;;;17.70;57.70;;;;;;5083360;28;20150;-78
2020/12/13 10:01:45;;;;;;;18.25;6.68;;;17.70;57.50;;;;;;5067798;28;20196;-80
2020/12/13 10:04:11;;;;;;;20.15;6.88;;;17.70;57.30;;;;;;5083651;28;20188;-80
2020/12/13 10:09:12;;;;;;;13.95;6.90;;;17.90;56.90;;;;;;5064595;28;20170;-78
2020/12/13 10:11:39;;;;;;;19.50;6.82;;;17.90;57.10;;;;;;5065151;28;20157;-79
2020/12/13 10:14:06;;;;;;;17.60;6.97;;;18.00;57.00;;;;;;5064711;28;20724;-80
2020/12/13 10:16:36;;;;;;;21.63;6.93;;;17.90;57.40;;;;;;5064154;28;20208;-79
2020/12/13 10:19:03;;;;;;;18.00;6.80;;;17.80;57.50;;;;;;5047864;28;20216;-79
2020/12/13 10:21:31;;;;;;;18.90;6.65;;;17.80;57.90;;;;;;5063895;28;20184;-79
2020/12/13 10:24:00;;;;;;;15.10;6.93;;;17.80;57.50;;;;;;5047887;28;20217;-78
2020/12/13 10:26:31;;;;;;;19.23;7.35;;;17.90;57.60;;;;;;5047909;28;20155;-78
2020/12/13 10:28:57;;;;;;;19.50;6.72;;;17.80;57.60;;;;;;5047575;28;20233;-78
2020/12/13 10:31:29;;;;;;;17.10;6.88;;;17.80;57.70;;;;;;5047722;28;20162;-78
2020/12/13 10:33:56;;;;;;;16.35;6.50;;;17.80;57.70;;;;;;5066565;28;20190;-78
2020/12/13 10:36:24;;;;;;;13.88;6.78;;;17.80;57.60;;;;;;5067707;28;20312;-78
2020/12/13 10:38:51;;;;;;;14.40;6.57;;;17.80;57.40;;;;;;5068119;28;20213;-78
2020/12/13 10:41:18;;;;;;;18.48;6.40;;;17.80;57.90;;;;;;5051961;28;20170;-79
2020/12/13 10:43:44;;;;;;;15.13;6.70;;;17.80;57.80;;;;;;5051980;28;20168;-79
2020/12/13 10:46:10;;;;;;;17.02;6.97;;;17.80;57.80;;;;;;5051946;28;20166;-79
2020/12/13 10:48:36;;;;;;;13.80;6.65;;;17.80;57.70;;;;;;5067867;28;20158;-78
2020/12/13 10:51:01;;;;;;;13.98;6.53;;;17.80;57.70;;;;;;5068313;28;20158;-79
2020/12/13 10:53:31;;;;;;;19.17;6.65;;;17.80;57.90;;;;;;5046200;28;20289;-78
2020/12/13 10:56:02;;;;;;;15.38;6.38;;;17.80;57.90;;;;;;5041189;28;20171;-78
2020/12/13 10:58:28;;;;;;;16.92;6.85;;;17.90;57.90;;;;;;5031576;28;20167;-78
2020/12/13 11:00:56;;;;;;;14.32;6.68;;;17.90;57.90;;;;;;5030863;28;20170;-81
2020/12/13 11:03:24;;;;;;;26.65;6.88;;;17.90;57.90;;;;;;5031638;28;20143;-78
2020/12/13 11:05:50;;;;;;;13.88;6.15;;;17.90;58.00;;;;;;5031096;28;20239;-79
2020/12/13 11:08:17;;;;;;;19.10;6.30;;;17.90;58.10;;;;;;5015463;28;20175;-77
2020/12/13 11:10:49;;;;;;;16.70;7.00;;;17.90;58.10;;;;;;5013822;28;20182;-77
2020/12/13 11:13:17;;;;;;;16.05;6.13;;;17.90;58.10;;;;;;5014636;28;20186;-78
2020/12/13 11:15:43;;;;;;;15.48;6.18;;;18.00;57.80;;;;;;5014546;28;20170;-78
2020/12/13 11:18:09;;;;;;;16.02;6.35;;;18.00;57.80;;;;;;5031086;28;20147;-77
2020/12/13 11:20:40;;;;;;;19.58;6.75;;;18.00;57.90;;;;;;5030986;28;20557;-77
2020/12/13 11:23:07;;;;;;;15.07;6.50;;;18.10;57.70;;;;;;5030423;28;20162;-77
2020/12/13 11:25:33;;;;;;;14.82;6.80;;;18.10;57.80;;;;;;5029866;28;20218;-77
2020/12/13 11:28:04;;;;;;;15.00;6.50;;;18.00;57.90;;;;;;5013928;28;20162;-78
2020/12/13 11:30:30;;;;;;;17.10;6.72;;;18.00;57.80;;;;;;5029999;28;20194;-76
2020/12/13 11:32:57;;;;;;;12.35;6.43;;;18.00;57.80;;;;;;5012070;28;20293;-76
2020/12/13 11:35:32;;;;;;;23.50;7.30;;;18.10;58.00;;;;;;5048879;28;20699;-77
2020/12/13 11:38:18;;;;;;;17.63;6.70;;;18.10;58.40;;;;;;5034001;28;20173;-77
2020/12/13 11:40:49;;;;;;;19.20;6.20;;;18.10;58.20;;;;;;5065746;28;20238;-77
2020/12/13 11:43:16;;;;;;;12.48;6.13;;;18.10;57.90;;;;;;5051340;28;20620;-78
2020/12/13 11:45:51;;;;;;;15.73;6.53;;;18.10;57.90;;;;;;5068690;28;20249;-78
2020/12/13 11:48:19;;;;;;;21.20;7.40;;;18.10;58.20;;;;;;5050291;28;20176;-79
2020/12/13 11:50:53;;;;;;;17.13;6.65;;;18.10;58.10;;;;;;5063303;28;20229;-77
2020/12/13 11:53:20;;;;;;;20.00;6.50;;;18.10;58.30;;;;;;5083205;28;20207;-79
2020/12/13 11:55:47;;;;;;;14.77;6.88;;;18.10;58.40;;;;;;5065873;28;20157;-80
2020/12/13 11:58:22;;;;;;;16.75;7.15;;;18.10;58.10;;;;;;5046653;28;20170;-78
2020/12/13 12:00:50;;;;;;;17.63;6.82;;;18.10;58.20;;;;;;5061474;28;20486;-78
2020/12/13 12:03:16;;;;;;;19.10;6.68;;;18.10;58.20;;;;;;5070230;28;20176;-80
2020/12/13 12:05:42;;;;;;;18.23;7.00;;;18.10;58.30;;;;;;5054451;28;20263;-78
2020/12/13 12:08:08;;;;;;;15.20;7.43;;;18.10;58.50;;;;;;5052013;28;20188;-80
2020/12/13 12:10:40;;;;;;;16.30;6.50;;;18.10;58.50;;;;;;5036065;28;20244;-80
2020/12/13 12:13:10;;;;;;;14.68;6.30;;;18.10;58.50;;;;;;5069431;28;20207;-81
2020/12/13 12:15:36;;;;;;;19.13;6.78;;;18.20;58.80;;;;;;5031065;28;20181;-78
2020/12/13 12:18:01;;;;;;;19.25;7.00;;;18.20;58.70;;;;;;5067801;28;20154;-78
2020/12/13 12:20:27;;;;;;;16.48;6.72;;;18.20;58.50;;;;;;5068370;28;20560;-78
2020/12/13 12:22:54;;;;;;;19.35;6.38;;;18.20;58.70;;;;;;5034781;28;20181;-78
2020/12/13 12:25:25;;;;;;;18.00;6.43;;;18.20;58.20;;;;;;5068868;28;20169;-77
2020/12/13 12:27:50;;;;;;;16.50;6.50;;;18.20;58.20;;;;;;5067168;28;20199;-79
2020/12/13 12:30:19;;;;;;;20.00;6.72;;;18.30;58.20;;;;;;5068889;28;20165;-78
2020/12/13 12:32:45;;;;;;;16.73;6.60;;;18.20;58.50;;;;;;5069138;28;20160;-77
2020/12/13 12:35:11;;;;;;;13.25;6.68;;;18.20;58.30;;;;;;5068278;28;20225;-79
2020/12/13 12:37:45;;;;;;;13.27;6.70;;;18.20;58.60;;;;;;5066763;28;20161;-78
2020/12/13 12:40:13;;;;;;;14.45;6.57;;;18.20;58.50;;;;;;5050249;28;20188;-77
2020/12/13 12:42:38;;;;;;;17.95;6.82;;;18.20;58.70;;;;;;5047458;28;20222;-79
2020/12/13 12:45:05;;;;;;;13.55;6.15;;;18.20;58.60;;;;;;5063295;28;20196;-78
2020/12/13 12:47:31;;;;;;;13.70;6.43;;;18.20;58.50;;;;;;5064037;28;20566;-77
2020/12/13 12:49:57;;;;;;;17.73;6.60;;;18.30;58.50;;;;;;5063977;28;20150;-77
2020/12/13 12:52:22;;;;;;;12.80;5.90;;;18.30;58.70;;;;;;5026095;28;20538;-80
2020/12/13 12:54:48;;;;;;;20.00;7.10;;;18.30;58.40;;;;;;5063025;28;20312;-77
2020/12/13 12:57:14;;;;;;;16.70;5.95;;;18.20;59.00;;;;;;5080931;28;20616;-79